Strona główna
METAR-TAF:

METAR-TAF

Lotnisko :

Port lotniczy Belfast-City George Best

Belfast, Irlandia Północna

Szerokość geograficzna: 54-36N, Długość geograficzna: 005-53W, wysokość: 5 m

Aktualna obserwacja pogody

Raport powstał 26 minut temu, godzina 11:50 UTC
Wiatr 4 kt od południowo-południowy zachód, zmienny między południowo-południowy wschód i zachodnio-południowy zachód
Temperatura 9°C
Wilgotność 66%
Ciśnienie 1018 hPa
Widzialność 10 km lub więcej

METAR: EGAC 271150Z AUTO 20004KT 160V240 9999 BKN039/// 09/03 Q1018

czas: 12:16 (12:16 UTC)

Prognoza

Raport powstał 1 godzina i 17 minut temu, godzina 10:59 UTC
Prognoza ważna od 27 godzina 12 UTC do 27 godzina 21 UTC
Wiatr 3 kt od południe
Widzialność 10 km lub więcej
Rozproszone chmury na wysokości 3500 ft

TAF: EGAC 271059Z 2712/2721 17003KT 9999 SCT035

Obserwacja i prognoza pogody dla ponad 4000 lotnisk (raport METAR i TAF).

Dostępne stacje oznaczono żółtymi i czerwonymi punktami na mapie.

Najedź kursorem aby zobaczyć nazwę stacji.

Kliknij aby zobaczyć obserwacje i prognozy pogody.

Aby zmienić mapę: kliknij na zielony przycisk z czarnym krzyżykiem, aby powiększyć; na zielony przycisk z myślnikiem, aby pomniejszyć; na zielone strzałki, aby przejść do map sąsiednich.


METAR-TAF: